sensor_id;sensor_type;location;lat;lon;timestamp;P1;durP1;ratioP1;P2;durP2;ratioP2
23614;SDS011;11985;49.404;7.734;2023-02-05T00:03:38;21.83;;;5.60;;
23614;SDS011;11985;49.404;7.734;2023-02-05T00:08:40;27.23;;;6.20;;
23614;SDS011;11985;49.404;7.734;2023-02-05T00:13:42;18.08;;;5.80;;
23614;SDS011;11985;49.404;7.734;2023-02-05T00:18:44;22.83;;;5.60;;
23614;SDS011;11985;49.404;7.734;2023-02-05T00:23:47;17.77;;;5.90;;
23614;SDS011;11985;49.404;7.734;2023-02-05T00:28:49;20.38;;;5.25;;
23614;SDS011;11985;49.404;7.734;2023-02-05T00:33:51;25.45;;;5.63;;
23614;SDS011;11985;49.404;7.734;2023-02-05T00:38:54;22.02;;;5.72;;
23614;SDS011;11985;49.404;7.734;2023-02-05T00:43:56;25.42;;;6.43;;
23614;SDS011;11985;49.404;7.734;2023-02-05T00:48:57;18.88;;;5.82;;
23614;SDS011;11985;49.404;7.734;2023-02-05T00:54:00;19.45;;;7.05;;
23614;SDS011;11985;49.404;7.734;2023-02-05T00:59:02;28.85;;;7.85;;
23614;SDS011;11985;49.404;7.734;2023-02-05T01:04:04;21.23;;;6.30;;
23614;SDS011;11985;49.404;7.734;2023-02-05T01:09:07;22.30;;;6.38;;
23614;SDS011;11985;49.404;7.734;2023-02-05T01:14:08;24.98;;;7.45;;
23614;SDS011;11985;49.404;7.734;2023-02-05T01:19:10;20.00;;;6.65;;
23614;SDS011;11985;49.404;7.734;2023-02-05T01:24:16;21.73;;;6.43;;
23614;SDS011;11985;49.404;7.734;2023-02-05T01:29:17;21.60;;;5.70;;
23614;SDS011;11985;49.404;7.734;2023-02-05T01:34:19;20.75;;;6.75;;
23614;SDS011;11985;49.404;7.734;2023-02-05T01:39:22;30.08;;;6.65;;
23614;SDS011;11985;49.404;7.734;2023-02-05T01:44:24;21.20;;;5.63;;
23614;SDS011;11985;49.404;7.734;2023-02-05T01:49:29;13.10;;;6.10;;
23614;SDS011;11985;49.404;7.734;2023-02-05T01:54:37;11.38;;;5.03;;
23614;SDS011;11985;49.404;7.734;2023-02-05T01:59:41;18.33;;;5.70;;
23614;SDS011;11985;49.404;7.734;2023-02-05T02:04:46;18.33;;;5.07;;
23614;SDS011;11985;49.404;7.734;2023-02-05T02:14:54;16.38;;;5.47;;
23614;SDS011;11985;49.404;7.734;2023-02-05T02:19:58;17.15;;;5.70;;
23614;SDS011;11985;49.404;7.734;2023-02-05T02:30:41;17.13;;;5.65;;
23614;SDS011;11985;49.404;7.734;2023-02-05T02:35:46;17.13;;;5.85;;
23614;SDS011;11985;49.404;7.734;2023-02-05T02:40:53;28.55;;;6.50;;
23614;SDS011;11985;49.404;7.734;2023-02-05T02:46:03;17.35;;;6.30;;
23614;SDS011;11985;49.404;7.734;2023-02-05T02:51:09;24.80;;;6.18;;
23614;SDS011;11985;49.404;7.734;2023-02-05T02:56:12;17.20;;;6.45;;
23614;SDS011;11985;49.404;7.734;2023-02-05T03:01:18;28.77;;;6.93;;
23614;SDS011;11985;49.404;7.734;2023-02-05T03:06:23;16.25;;;6.28;;
23614;SDS011;11985;49.404;7.734;2023-02-05T03:11:27;21.25;;;6.25;;
23614;SDS011;11985;49.404;7.734;2023-02-05T03:16:30;21.60;;;6.35;;
23614;SDS011;11985;49.404;7.734;2023-02-05T03:21:33;17.20;;;5.93;;
23614;SDS011;11985;49.404;7.734;2023-02-05T03:26:37;18.73;;;5.55;;
23614;SDS011;11985;49.404;7.734;2023-02-05T03:31:42;17.13;;;6.03;;
23614;SDS011;11985;49.404;7.734;2023-02-05T03:36:54;17.80;;;5.55;;
23614;SDS011;11985;49.404;7.734;2023-02-05T03:42:06;16.73;;;6.00;;
23614;SDS011;11985;49.404;7.734;2023-02-05T03:47:17;21.08;;;5.38;;
23614;SDS011;11985;49.404;7.734;2023-02-05T03:52:31;17.25;;;5.45;;
23614;SDS011;11985;49.404;7.734;2023-02-05T04:02:41;17.20;;;5.50;;
23614;SDS011;11985;49.404;7.734;2023-02-05T04:07:43;22.13;;;6.00;;
23614;SDS011;11985;49.404;7.734;2023-02-05T04:12:45;18.58;;;6.47;;
23614;SDS011;11985;49.404;7.734;2023-02-05T04:17:48;20.05;;;5.60;;
23614;SDS011;11985;49.404;7.734;2023-02-05T04:22:49;19.90;;;5.45;;
23614;SDS011;11985;49.404;7.734;2023-02-05T04:27:51;22.15;;;6.05;;
23614;SDS011;11985;49.404;7.734;2023-02-05T04:32:55;17.13;;;5.20;;
23614;SDS011;11985;49.404;7.734;2023-02-05T04:37:57;17.58;;;5.82;;
23614;SDS011;11985;49.404;7.734;2023-02-05T04:42:58;22.20;;;5.68;;
23614;SDS011;11985;49.404;7.734;2023-02-05T04:48:01;19.65;;;5.75;;
23614;SDS011;11985;49.404;7.734;2023-02-05T04:53:05;14.20;;;5.18;;
23614;SDS011;11985;49.404;7.734;2023-02-05T04:58:07;23.13;;;6.85;;
23614;SDS011;11985;49.404;7.734;2023-02-05T05:03:09;17.17;;;5.85;;
23614;SDS011;11985;49.404;7.734;2023-02-05T05:08:11;24.25;;;5.70;;
23614;SDS011;11985;49.404;7.734;2023-02-05T05:13:12;23.33;;;5.72;;
23614;SDS011;11985;49.404;7.734;2023-02-05T05:18:15;20.77;;;6.78;;
23614;SDS011;11985;49.404;7.734;2023-02-05T05:23:17;23.77;;;6.95;;
23614;SDS011;11985;49.404;7.734;2023-02-05T05:28:18;19.00;;;7.07;;
23614;SDS011;11985;49.404;7.734;2023-02-05T05:33:21;21.70;;;7.10;;
23614;SDS011;11985;49.404;7.734;2023-02-05T05:38:23;26.02;;;7.35;;
23614;SDS011;11985;49.404;7.734;2023-02-05T05:43:24;23.70;;;6.97;;
23614;SDS011;11985;49.404;7.734;2023-02-05T05:48:45;25.45;;;7.78;;
23614;SDS011;11985;49.404;7.734;2023-02-05T05:53:46;20.75;;;7.70;;
23614;SDS011;11985;49.404;7.734;2023-02-05T05:58:48;31.48;;;8.75;;
23614;SDS011;11985;49.404;7.734;2023-02-05T06:03:51;25.25;;;8.55;;
23614;SDS011;11985;49.404;7.734;2023-02-05T06:08:54;25.57;;;8.70;;
23614;SDS011;11985;49.404;7.734;2023-02-05T06:13:55;23.58;;;8.98;;
23614;SDS011;11985;49.404;7.734;2023-02-05T06:18:58;30.48;;;9.13;;
23614;SDS011;11985;49.404;7.734;2023-02-05T06:23:59;27.52;;;10.43;;
23614;SDS011;11985;49.404;7.734;2023-02-05T06:29:01;30.08;;;9.85;;
23614;SDS011;11985;49.404;7.734;2023-02-05T06:34:04;26.05;;;9.27;;
23614;SDS011;11985;49.404;7.734;2023-02-05T06:39:05;16.10;;;7.97;;
23614;SDS011;11985;49.404;7.734;2023-02-05T06:44:07;24.20;;;8.63;;
23614;SDS011;11985;49.404;7.734;2023-02-05T06:49:10;32.40;;;7.85;;
23614;SDS011;11985;49.404;7.734;2023-02-05T06:54:11;25.30;;;8.82;;
23614;SDS011;11985;49.404;7.734;2023-02-05T06:59:13;30.85;;;8.40;;
23614;SDS011;11985;49.404;7.734;2023-02-05T07:04:16;17.55;;;7.72;;
23614;SDS011;11985;49.404;7.734;2023-02-05T07:09:18;23.15;;;8.57;;
23614;SDS011;11985;49.404;7.734;2023-02-05T07:14:19;25.38;;;8.60;;
23614;SDS011;11985;49.404;7.734;2023-02-05T07:19:22;19.55;;;7.68;;
23614;SDS011;11985;49.404;7.734;2023-02-05T07:24:24;25.15;;;9.00;;
23614;SDS011;11985;49.404;7.734;2023-02-05T07:29:26;22.58;;;8.82;;
23614;SDS011;11985;49.404;7.734;2023-02-05T07:34:29;34.88;;;9.57;;
23614;SDS011;11985;49.404;7.734;2023-02-05T07:39:30;26.13;;;9.23;;
23614;SDS011;11985;49.404;7.734;2023-02-05T07:44:33;23.15;;;9.23;;
23614;SDS011;11985;49.404;7.734;2023-02-05T07:49:36;24.33;;;9.93;;
23614;SDS011;11985;49.404;7.734;2023-02-05T07:54:37;33.00;;;9.15;;
23614;SDS011;11985;49.404;7.734;2023-02-05T07:59:39;23.38;;;8.43;;
23614;SDS011;11985;49.404;7.734;2023-02-05T08:04:41;30.50;;;7.95;;
23614;SDS011;11985;49.404;7.734;2023-02-05T08:09:43;29.38;;;9.50;;
23614;SDS011;11985;49.404;7.734;2023-02-05T08:14:45;32.58;;;9.77;;
23614;SDS011;11985;49.404;7.734;2023-02-05T08:19:47;29.33;;;9.88;;
23614;SDS011;11985;49.404;7.734;2023-02-05T08:24:50;34.33;;;11.03;;
23614;SDS011;11985;49.404;7.734;2023-02-05T08:29:52;34.33;;;10.95;;
23614;SDS011;11985;49.404;7.734;2023-02-05T08:34:55;33.53;;;11.18;;
23614;SDS011;11985;49.404;7.734;2023-02-05T08:39:57;31.97;;;10.37;;
23614;SDS011;11985;49.404;7.734;2023-02-05T08:44:59;28.40;;;10.88;;
23614;SDS011;11985;49.404;7.734;2023-02-05T08:50:04;26.17;;;9.27;;
23614;SDS011;11985;49.404;7.734;2023-02-05T08:55:06;47.08;;;18.27;;
23614;SDS011;11985;49.404;7.734;2023-02-05T09:00:08;41.40;;;14.52;;
23614;SDS011;11985;49.404;7.734;2023-02-05T09:05:12;36.63;;;14.73;;
23614;SDS011;11985;49.404;7.734;2023-02-05T09:10:14;32.88;;;13.80;;
23614;SDS011;11985;49.404;7.734;2023-02-05T09:15:15;40.72;;;15.13;;
23614;SDS011;11985;49.404;7.734;2023-02-05T09:20:18;40.63;;;14.55;;
23614;SDS011;11985;49.404;7.734;2023-02-05T09:25:20;40.67;;;15.10;;
23614;SDS011;11985;49.404;7.734;2023-02-05T09:30:21;44.97;;;17.33;;
23614;SDS011;11985;49.404;7.734;2023-02-05T09:35:24;43.08;;;17.63;;
23614;SDS011;11985;49.404;7.734;2023-02-05T09:40:27;40.95;;;16.92;;
23614;SDS011;11985;49.404;7.734;2023-02-05T09:45:36;53.58;;;19.75;;
23614;SDS011;11985;49.404;7.734;2023-02-05T09:50:47;49.80;;;19.45;;
23614;SDS011;11985;49.404;7.734;2023-02-05T09:55:48;44.53;;;18.23;;
23614;SDS011;11985;49.404;7.734;2023-02-05T10:00:51;35.80;;;14.93;;
23614;SDS011;11985;49.404;7.734;2023-02-05T10:06:06;46.63;;;16.90;;
23614;SDS011;11985;49.404;7.734;2023-02-05T10:11:18;43.83;;;14.57;;
23614;SDS011;11985;49.404;7.734;2023-02-05T10:16:35;31.50;;;14.27;;
23614;SDS011;11985;49.404;7.734;2023-02-05T10:22:09;40.83;;;15.88;;
23614;SDS011;11985;49.404;7.734;2023-02-05T10:27:18;39.17;;;17.23;;
23614;SDS011;11985;49.404;7.734;2023-02-05T10:32:21;44.50;;;18.10;;
23614;SDS011;11985;49.404;7.734;2023-02-05T10:37:29;35.78;;;16.10;;
23614;SDS011;11985;49.404;7.734;2023-02-05T10:42:37;39.15;;;17.15;;
23614;SDS011;11985;49.404;7.734;2023-02-05T10:47:46;42.83;;;17.80;;
23614;SDS011;11985;49.404;7.734;2023-02-05T10:52:54;32.67;;;14.50;;
23614;SDS011;11985;49.404;7.734;2023-02-05T10:57:56;24.17;;;12.85;;
23614;SDS011;11985;49.404;7.734;2023-02-05T11:02:58;22.83;;;11.88;;
23614;SDS011;11985;49.404;7.734;2023-02-05T11:08:01;25.90;;;10.60;;
23614;SDS011;11985;49.404;7.734;2023-02-05T11:13:18;25.85;;;13.25;;
23614;SDS011;11985;49.404;7.734;2023-02-05T11:18:22;27.80;;;14.13;;
23614;SDS011;11985;49.404;7.734;2023-02-05T11:23:30;22.45;;;12.13;;
23614;SDS011;11985;49.404;7.734;2023-02-05T11:28:38;32.65;;;18.42;;
23614;SDS011;11985;49.404;7.734;2023-02-05T11:33:40;33.42;;;17.20;;
23614;SDS011;11985;49.404;7.734;2023-02-05T11:38:43;30.70;;;15.02;;
23614;SDS011;11985;49.404;7.734;2023-02-05T11:43:47;97.05;;;38.65;;
23614;SDS011;11985;49.404;7.734;2023-02-05T11:48:53;35.60;;;20.65;;
23614;SDS011;11985;49.404;7.734;2023-02-05T11:53:59;28.75;;;14.60;;
23614;SDS011;11985;49.404;7.734;2023-02-05T11:59:05;26.58;;;13.73;;
23614;SDS011;11985;49.404;7.734;2023-02-05T12:04:18;28.30;;;13.43;;
23614;SDS011;11985;49.404;7.734;2023-02-05T12:09:23;25.15;;;12.10;;
23614;SDS011;11985;49.404;7.734;2023-02-05T12:14:29;23.27;;;10.73;;
23614;SDS011;11985;49.404;7.734;2023-02-05T12:19:39;23.38;;;11.73;;
23614;SDS011;11985;49.404;7.734;2023-02-05T12:24:54;31.48;;;12.68;;
23614;SDS011;11985;49.404;7.734;2023-02-05T12:30:10;16.58;;;9.35;;
23614;SDS011;11985;49.404;7.734;2023-02-05T12:35:30;9.55;;;6.20;;
23614;SDS011;11985;49.404;7.734;2023-02-05T12:40:47;19.30;;;8.48;;
23614;SDS011;11985;49.404;7.734;2023-02-05T12:45:59;13.32;;;6.88;;
23614;SDS011;11985;49.404;7.734;2023-02-05T12:56:38;6.20;;;3.83;;
23614;SDS011;11985;49.404;7.734;2023-02-05T13:01:50;5.60;;;3.60;;
23614;SDS011;11985;49.404;7.734;2023-02-05T13:06:56;6.40;;;3.28;;
23614;SDS011;11985;49.404;7.734;2023-02-05T13:12:07;3.75;;;3.08;;
23614;SDS011;11985;49.404;7.734;2023-02-05T13:17:13;3.38;;;2.72;;
23614;SDS011;11985;49.404;7.734;2023-02-05T13:27:41;4.43;;;3.03;;
23614;SDS011;11985;49.404;7.734;2023-02-05T13:33:04;2.83;;;1.92;;
23614;SDS011;11985;49.404;7.734;2023-02-05T13:38:11;4.07;;;2.42;;
23614;SDS011;11985;49.404;7.734;2023-02-05T13:49:14;3.42;;;2.60;;
23614;SDS011;11985;49.404;7.734;2023-02-05T13:54:49;3.60;;;2.20;;
23614;SDS011;11985;49.404;7.734;2023-02-05T14:00:02;2.88;;;2.13;;
23614;SDS011;11985;49.404;7.734;2023-02-05T14:05:11;3.80;;;2.10;;
23614;SDS011;11985;49.404;7.734;2023-02-05T14:10:23;3.33;;;1.83;;
23614;SDS011;11985;49.404;7.734;2023-02-05T14:15:37;2.53;;;1.65;;
23614;SDS011;11985;49.404;7.734;2023-02-05T14:20:41;2.78;;;1.65;;
23614;SDS011;11985;49.404;7.734;2023-02-05T14:31:04;21.27;;;7.32;;
23614;SDS011;11985;49.404;7.734;2023-02-05T14:41:45;2.28;;;1.52;;
23614;SDS011;11985;49.404;7.734;2023-02-05T14:47:01;4.05;;;2.00;;
23614;SDS011;11985;49.404;7.734;2023-02-05T14:52:15;1.95;;;1.38;;
23614;SDS011;11985;49.404;7.734;2023-02-05T14:57:26;1.60;;;1.42;;
23614;SDS011;11985;49.404;7.734;2023-02-05T15:02:54;2.42;;;1.70;;
23614;SDS011;11985;49.404;7.734;2023-02-05T15:08:21;4.78;;;1.55;;
23614;SDS011;11985;49.404;7.734;2023-02-05T15:13:30;3.33;;;1.75;;
23614;SDS011;11985;49.404;7.734;2023-02-05T15:18:32;2.50;;;1.35;;
23614;SDS011;11985;49.404;7.734;2023-02-05T15:23:40;3.65;;;1.73;;
23614;SDS011;11985;49.404;7.734;2023-02-05T15:28:46;4.25;;;2.78;;
23614;SDS011;11985;49.404;7.734;2023-02-05T15:33:58;3.58;;;2.60;;
23614;SDS011;11985;49.404;7.734;2023-02-05T15:39:08;2.03;;;1.60;;
23614;SDS011;11985;49.404;7.734;2023-02-05T15:44:19;2.90;;;1.95;;
23614;SDS011;11985;49.404;7.734;2023-02-05T15:49:24;2.95;;;1.77;;
23614;SDS011;11985;49.404;7.734;2023-02-05T15:54:33;3.08;;;2.00;;
23614;SDS011;11985;49.404;7.734;2023-02-05T15:59:36;1.75;;;1.40;;
23614;SDS011;11985;49.404;7.734;2023-02-05T16:04:40;2.10;;;1.58;;
23614;SDS011;11985;49.404;7.734;2023-02-05T16:09:45;3.00;;;2.03;;
23614;SDS011;11985;49.404;7.734;2023-02-05T16:14:55;2.85;;;1.92;;
23614;SDS011;11985;49.404;7.734;2023-02-05T16:20:00;5.78;;;2.00;;
23614;SDS011;11985;49.404;7.734;2023-02-05T16:25:17;4.50;;;2.42;;
23614;SDS011;11985;49.404;7.734;2023-02-05T16:30:29;5.03;;;1.90;;
23614;SDS011;11985;49.404;7.734;2023-02-05T16:35:34;30.13;;;14.77;;
23614;SDS011;11985;49.404;7.734;2023-02-05T16:45:46;2.20;;;1.75;;
23614;SDS011;11985;49.404;7.734;2023-02-05T16:51:34;8.80;;;2.58;;
23614;SDS011;11985;49.404;7.734;2023-02-05T16:56:42;4.30;;;3.17;;
23614;SDS011;11985;49.404;7.734;2023-02-05T17:01:47;8.32;;;3.65;;
23614;SDS011;11985;49.404;7.734;2023-02-05T17:06:51;3.78;;;2.58;;
23614;SDS011;11985;49.404;7.734;2023-02-05T17:12:08;13.27;;;8.85;;
23614;SDS011;11985;49.404;7.734;2023-02-05T17:17:27;5.00;;;2.92;;
23614;SDS011;11985;49.404;7.734;2023-02-05T17:22:30;5.70;;;3.40;;
23614;SDS011;11985;49.404;7.734;2023-02-05T17:27:35;5.35;;;3.30;;
23614;SDS011;11985;49.404;7.734;2023-02-05T17:32:38;4.82;;;3.50;;
23614;SDS011;11985;49.404;7.734;2023-02-05T17:37:40;4.70;;;3.17;;
23614;SDS011;11985;49.404;7.734;2023-02-05T17:42:42;3.67;;;2.90;;
23614;SDS011;11985;49.404;7.734;2023-02-05T17:47:44;4.47;;;2.50;;
23614;SDS011;11985;49.404;7.734;2023-02-05T17:52:45;7.07;;;5.45;;
23614;SDS011;11985;49.404;7.734;2023-02-05T17:57:49;15.30;;;8.48;;
23614;SDS011;11985;49.404;7.734;2023-02-05T18:02:50;6.28;;;3.72;;
23614;SDS011;11985;49.404;7.734;2023-02-05T18:07:53;5.05;;;3.38;;
23614;SDS011;11985;49.404;7.734;2023-02-05T18:12:58;5.18;;;3.33;;
23614;SDS011;11985;49.404;7.734;2023-02-05T18:18:00;6.10;;;3.88;;
23614;SDS011;11985;49.404;7.734;2023-02-05T18:23:01;13.98;;;8.85;;
23614;SDS011;11985;49.404;7.734;2023-02-05T18:28:04;4.35;;;3.22;;
23614;SDS011;11985;49.404;7.734;2023-02-05T18:33:06;8.15;;;3.88;;
23614;SDS011;11985;49.404;7.734;2023-02-05T18:38:08;5.82;;;3.10;;
23614;SDS011;11985;49.404;7.734;2023-02-05T18:43:11;5.30;;;3.40;;
23614;SDS011;11985;49.404;7.734;2023-02-05T18:48:12;3.05;;;2.63;;
23614;SDS011;11985;49.404;7.734;2023-02-05T18:53:14;5.60;;;3.80;;
23614;SDS011;11985;49.404;7.734;2023-02-05T18:58:17;6.55;;;3.10;;
23614;SDS011;11985;49.404;7.734;2023-02-05T19:03:18;5.80;;;3.88;;
23614;SDS011;11985;49.404;7.734;2023-02-05T19:08:20;6.60;;;4.03;;
23614;SDS011;11985;49.404;7.734;2023-02-05T19:13:23;5.38;;;3.25;;
23614;SDS011;11985;49.404;7.734;2023-02-05T19:18:24;4.80;;;3.53;;
23614;SDS011;11985;49.404;7.734;2023-02-05T19:23:27;6.57;;;4.53;;
23614;SDS011;11985;49.404;7.734;2023-02-05T19:28:30;6.78;;;4.30;;
23614;SDS011;11985;49.404;7.734;2023-02-05T19:33:32;8.50;;;5.35;;
23614;SDS011;11985;49.404;7.734;2023-02-05T19:38:34;9.20;;;5.40;;
23614;SDS011;11985;49.404;7.734;2023-02-05T19:43:38;7.43;;;5.30;;
23614;SDS011;11985;49.404;7.734;2023-02-05T19:48:42;10.98;;;6.15;;
23614;SDS011;11985;49.404;7.734;2023-02-05T19:53:44;8.48;;;6.13;;
23614;SDS011;11985;49.404;7.734;2023-02-05T19:58:48;10.10;;;6.10;;
23614;SDS011;11985;49.404;7.734;2023-02-05T20:03:52;10.63;;;6.00;;
23614;SDS011;11985;49.404;7.734;2023-02-05T20:08:55;10.90;;;6.80;;
23614;SDS011;11985;49.404;7.734;2023-02-05T20:14:01;10.32;;;6.70;;
23614;SDS011;11985;49.404;7.734;2023-02-05T20:19:03;11.18;;;7.63;;
23614;SDS011;11985;49.404;7.734;2023-02-05T20:24:06;13.75;;;8.02;;
23614;SDS011;11985;49.404;7.734;2023-02-05T20:29:10;13.35;;;7.75;;
23614;SDS011;11985;49.404;7.734;2023-02-05T20:34:29;11.55;;;7.82;;
23614;SDS011;11985;49.404;7.734;2023-02-05T20:39:31;12.35;;;8.02;;
23614;SDS011;11985;49.404;7.734;2023-02-05T20:44:39;11.75;;;7.35;;
23614;SDS011;11985;49.404;7.734;2023-02-05T20:49:41;12.93;;;7.83;;
23614;SDS011;11985;49.404;7.734;2023-02-05T20:54:43;11.50;;;7.40;;
23614;SDS011;11985;49.404;7.734;2023-02-05T20:59:45;11.27;;;6.93;;
23614;SDS011;11985;49.404;7.734;2023-02-05T21:04:47;11.40;;;7.13;;
23614;SDS011;11985;49.404;7.734;2023-02-05T21:09:49;12.90;;;7.15;;
23614;SDS011;11985;49.404;7.734;2023-02-05T21:14:53;10.60;;;6.32;;
23614;SDS011;11985;49.404;7.734;2023-02-05T21:19:55;9.70;;;6.38;;
23614;SDS011;11985;49.404;7.734;2023-02-05T21:24:57;12.55;;;8.50;;
23614;SDS011;11985;49.404;7.734;2023-02-05T21:29:59;15.40;;;8.90;;
23614;SDS011;11985;49.404;7.734;2023-02-05T21:35:01;14.18;;;9.40;;
23614;SDS011;11985;49.404;7.734;2023-02-05T21:40:03;14.75;;;8.70;;
23614;SDS011;11985;49.404;7.734;2023-02-05T21:45:07;16.50;;;9.55;;
23614;SDS011;11985;49.404;7.734;2023-02-05T21:50:09;16.90;;;10.77;;
23614;SDS011;11985;49.404;7.734;2023-02-05T21:55:10;21.63;;;12.35;;
23614;SDS011;11985;49.404;7.734;2023-02-05T22:00:14;21.35;;;13.35;;
23614;SDS011;11985;49.404;7.734;2023-02-05T22:05:16;20.65;;;13.25;;
23614;SDS011;11985;49.404;7.734;2023-02-05T22:10:18;22.55;;;13.98;;
23614;SDS011;11985;49.404;7.734;2023-02-05T22:15:21;21.50;;;13.70;;
23614;SDS011;11985;49.404;7.734;2023-02-05T22:20:22;22.55;;;13.23;;
23614;SDS011;11985;49.404;7.734;2023-02-05T22:25:24;21.63;;;12.95;;
23614;SDS011;11985;49.404;7.734;2023-02-05T22:30:27;26.23;;;14.55;;
23614;SDS011;11985;49.404;7.734;2023-02-05T22:35:28;27.90;;;13.80;;
23614;SDS011;11985;49.404;7.734;2023-02-05T22:40:30;33.05;;;15.23;;
23614;SDS011;11985;49.404;7.734;2023-02-05T22:45:34;25.60;;;14.48;;
23614;SDS011;11985;49.404;7.734;2023-02-05T22:50:36;22.08;;;14.23;;
23614;SDS011;11985;49.404;7.734;2023-02-05T22:55:38;23.95;;;15.45;;
23614;SDS011;11985;49.404;7.734;2023-02-05T23:00:42;25.20;;;15.30;;
23614;SDS011;11985;49.404;7.734;2023-02-05T23:05:44;27.27;;;15.35;;
23614;SDS011;11985;49.404;7.734;2023-02-05T23:10:45;26.05;;;15.43;;
23614;SDS011;11985;49.404;7.734;2023-02-05T23:15:48;26.50;;;15.40;;
23614;SDS011;11985;49.404;7.734;2023-02-05T23:20:50;26.92;;;16.42;;
23614;SDS011;11985;49.404;7.734;2023-02-05T23:25:51;28.73;;;17.05;;
23614;SDS011;11985;49.404;7.734;2023-02-05T23:30:55;37.85;;;18.95;;
23614;SDS011;11985;49.404;7.734;2023-02-05T23:35:56;44.88;;;17.90;;
23614;SDS011;11985;49.404;7.734;2023-02-05T23:40:58;33.30;;;17.20;;
23614;SDS011;11985;49.404;7.734;2023-02-05T23:46:02;35.08;;;19.23;;
23614;SDS011;11985;49.404;7.734;2023-02-05T23:51:04;32.90;;;17.40;;
23614;SDS011;11985;49.404;7.734;2023-02-05T23:56:05;34.45;;;17.20;;
